Terminal Aerodrome Forecast
Issued by NWS Sterling, VA

Current Version | Previous Version | Graphics & Text | Print | Product List | Glossary On
Versions: 1 2 3 4 5 6 7 8 9 10 11 12 13 14 15
355
FTUS41 KLWX 102320
TAFMRB
TAF
KMRB 102320Z 1100/1124 28010G20KT P6SM SCT045 BKN060
     FM110600 28011G18KT P6SM FEW100 SCT250
     FM111400 29014G23KT P6SM SCT045 BKN100
     FM111700 30016G26KT P6SM FEW045 SCT080
     FM112300 30012G19KT P6SM FEW045 SCT200=

USA.gov is the U.S. government's official web portal to all federal, state and local government web resources and services.